sensor_id;sensor_type;location;lat;lon;timestamp;P1;durP1;ratioP1;P2;durP2;ratioP2
3779;SDS011;1905;52.482;9.802;2023-11-19T00:00:15;5.70;;;1.90;;
3779;SDS011;1905;52.482;9.802;2023-11-19T00:02:44;5.80;;;2.00;;
3779;SDS011;1905;52.482;9.802;2023-11-19T00:05:12;6.00;;;1.70;;
3779;SDS011;1905;52.482;9.802;2023-11-19T00:07:41;6.37;;;2.23;;
3779;SDS011;1905;52.482;9.802;2023-11-19T00:10:10;5.83;;;2.23;;
3779;SDS011;1905;52.482;9.802;2023-11-19T00:12:38;5.80;;;1.80;;
3779;SDS011;1905;52.482;9.802;2023-11-19T00:15:08;6.37;;;2.30;;
3779;SDS011;1905;52.482;9.802;2023-11-19T00:17:38;7.30;;;2.23;;
3779;SDS011;1905;52.482;9.802;2023-11-19T00:20:08;6.10;;;2.00;;
3779;SDS011;1905;52.482;9.802;2023-11-19T00:22:37;6.23;;;1.87;;
3779;SDS011;1905;52.482;9.802;2023-11-19T00:25:16;5.67;;;2.07;;
3779;SDS011;1905;52.482;9.802;2023-11-19T00:27:44;5.50;;;1.60;;
3779;SDS011;1905;52.482;9.802;2023-11-19T00:30:12;5.50;;;1.87;;
3779;SDS011;1905;52.482;9.802;2023-11-19T00:32:41;5.40;;;1.67;;
3779;SDS011;1905;52.482;9.802;2023-11-19T00:35:09;6.50;;;1.73;;
3779;SDS011;1905;52.482;9.802;2023-11-19T00:37:37;5.87;;;1.60;;
3779;SDS011;1905;52.482;9.802;2023-11-19T00:40:06;5.77;;;1.73;;
3779;SDS011;1905;52.482;9.802;2023-11-19T00:42:38;5.53;;;1.50;;
3779;SDS011;1905;52.482;9.802;2023-11-19T00:45:06;5.67;;;1.43;;
3779;SDS011;1905;52.482;9.802;2023-11-19T00:47:37;5.67;;;1.77;;
3779;SDS011;1905;52.482;9.802;2023-11-19T00:50:06;5.50;;;1.80;;
3779;SDS011;1905;52.482;9.802;2023-11-19T00:52:36;5.80;;;1.77;;
3779;SDS011;1905;52.482;9.802;2023-11-19T00:55:04;9.73;;;1.90;;
3779;SDS011;1905;52.482;9.802;2023-11-19T00:57:34;5.90;;;1.70;;
3779;SDS011;1905;52.482;9.802;2023-11-19T01:00:04;5.40;;;1.20;;
3779;SDS011;1905;52.482;9.802;2023-11-19T01:02:45;6.00;;;1.53;;
3779;SDS011;1905;52.482;9.802;2023-11-19T01:05:16;5.73;;;1.50;;
3779;SDS011;1905;52.482;9.802;2023-11-19T01:07:48;5.47;;;1.50;;
3779;SDS011;1905;52.482;9.802;2023-11-19T01:10:16;5.60;;;1.43;;
3779;SDS011;1905;52.482;9.802;2023-11-19T01:12:45;5.77;;;1.60;;
3779;SDS011;1905;52.482;9.802;2023-11-19T01:15:14;5.53;;;1.63;;
3779;SDS011;1905;52.482;9.802;2023-11-19T01:17:45;5.27;;;1.53;;
3779;SDS011;1905;52.482;9.802;2023-11-19T01:20:15;5.47;;;1.50;;
3779;SDS011;1905;52.482;9.802;2023-11-19T01:22:43;5.60;;;1.40;;
3779;SDS011;1905;52.482;9.802;2023-11-19T01:25:11;7.50;;;2.00;;
3779;SDS011;1905;52.482;9.802;2023-11-19T01:27:39;7.83;;;1.57;;
3779;SDS011;1905;52.482;9.802;2023-11-19T01:30:07;5.60;;;1.70;;
3779;SDS011;1905;52.482;9.802;2023-11-19T01:32:40;6.70;;;1.80;;
3779;SDS011;1905;52.482;9.802;2023-11-19T01:35:08;5.93;;;1.57;;
3779;SDS011;1905;52.482;9.802;2023-11-19T01:37:39;5.60;;;1.80;;
3779;SDS011;1905;52.482;9.802;2023-11-19T01:40:07;5.53;;;1.40;;
3779;SDS011;1905;52.482;9.802;2023-11-19T01:42:38;5.20;;;1.23;;
3779;SDS011;1905;52.482;9.802;2023-11-19T01:45:06;5.10;;;1.40;;
3779;SDS011;1905;52.482;9.802;2023-11-19T01:47:35;5.30;;;1.40;;
3779;SDS011;1905;52.482;9.802;2023-11-19T01:50:06;5.40;;;1.50;;
3779;SDS011;1905;52.482;9.802;2023-11-19T01:52:35;7.20;;;1.70;;
3779;SDS011;1905;52.482;9.802;2023-11-19T01:55:06;5.80;;;1.60;;
3779;SDS011;1905;52.482;9.802;2023-11-19T01:57:36;5.67;;;1.50;;
3779;SDS011;1905;52.482;9.802;2023-11-19T02:00:07;6.10;;;1.60;;
3779;SDS011;1905;52.482;9.802;2023-11-19T02:02:38;5.40;;;1.40;;
3779;SDS011;1905;52.482;9.802;2023-11-19T02:05:09;5.90;;;1.63;;
3779;SDS011;1905;52.482;9.802;2023-11-19T02:07:36;5.93;;;1.90;;
3779;SDS011;1905;52.482;9.802;2023-11-19T02:10:04;5.40;;;2.00;;
3779;SDS011;1905;52.482;9.802;2023-11-19T02:12:39;5.23;;;1.53;;
3779;SDS011;1905;52.482;9.802;2023-11-19T02:15:10;5.30;;;1.30;;
3779;SDS011;1905;52.482;9.802;2023-11-19T02:17:37;6.10;;;1.80;;
3779;SDS011;1905;52.482;9.802;2023-11-19T02:20:06;5.27;;;1.03;;
3779;SDS011;1905;52.482;9.802;2023-11-19T02:22:37;6.53;;;1.37;;
3779;SDS011;1905;52.482;9.802;2023-11-19T02:25:06;4.90;;;1.13;;
3779;SDS011;1905;52.482;9.802;2023-11-19T02:27:51;5.47;;;1.40;;
3779;SDS011;1905;52.482;9.802;2023-11-19T02:30:23;5.97;;;1.20;;
3779;SDS011;1905;52.482;9.802;2023-11-19T02:32:53;5.40;;;1.40;;
3779;SDS011;1905;52.482;9.802;2023-11-19T02:35:24;5.60;;;1.37;;
3779;SDS011;1905;52.482;9.802;2023-11-19T02:37:52;5.50;;;1.40;;
3779;SDS011;1905;52.482;9.802;2023-11-19T02:40:21;6.60;;;1.57;;
3779;SDS011;1905;52.482;9.802;2023-11-19T02:42:51;5.93;;;1.67;;
3779;SDS011;1905;52.482;9.802;2023-11-19T02:45:22;5.10;;;1.30;;
3779;SDS011;1905;52.482;9.802;2023-11-19T02:47:50;5.90;;;1.50;;
3779;SDS011;1905;52.482;9.802;2023-11-19T02:50:18;5.00;;;1.10;;
3779;SDS011;1905;52.482;9.802;2023-11-19T02:52:51;5.80;;;1.43;;
3779;SDS011;1905;52.482;9.802;2023-11-19T02:55:21;5.03;;;1.10;;
3779;SDS011;1905;52.482;9.802;2023-11-19T02:57:51;5.17;;;1.17;;
3779;SDS011;1905;52.482;9.802;2023-11-19T03:00:20;5.00;;;1.10;;
3779;SDS011;1905;52.482;9.802;2023-11-19T03:02:54;5.67;;;1.30;;
3779;SDS011;1905;52.482;9.802;2023-11-19T03:05:26;5.33;;;1.33;;
3779;SDS011;1905;52.482;9.802;2023-11-19T03:07:57;6.50;;;1.37;;
3779;SDS011;1905;52.482;9.802;2023-11-19T03:10:24;5.40;;;1.13;;
3779;SDS011;1905;52.482;9.802;2023-11-19T03:12:53;5.40;;;1.30;;
3779;SDS011;1905;52.482;9.802;2023-11-19T03:15:23;5.50;;;1.50;;
3779;SDS011;1905;52.482;9.802;2023-11-19T03:17:51;5.20;;;1.23;;
3779;SDS011;1905;52.482;9.802;2023-11-19T03:20:19;5.20;;;1.30;;
3779;SDS011;1905;52.482;9.802;2023-11-19T03:22:47;5.70;;;1.30;;
3779;SDS011;1905;52.482;9.802;2023-11-19T03:25:15;5.20;;;1.37;;
3779;SDS011;1905;52.482;9.802;2023-11-19T03:27:42;5.57;;;1.50;;
3779;SDS011;1905;52.482;9.802;2023-11-19T03:30:11;5.77;;;1.23;;
3779;SDS011;1905;52.482;9.802;2023-11-19T03:32:39;5.67;;;1.40;;
3779;SDS011;1905;52.482;9.802;2023-11-19T03:35:07;5.60;;;1.40;;
3779;SDS011;1905;52.482;9.802;2023-11-19T03:37:36;6.60;;;1.30;;
3779;SDS011;1905;52.482;9.802;2023-11-19T03:40:04;5.27;;;1.60;;
3779;SDS011;1905;52.482;9.802;2023-11-19T03:42:33;5.37;;;1.33;;
3779;SDS011;1905;52.482;9.802;2023-11-19T03:45:00;5.90;;;1.63;;
3779;SDS011;1905;52.482;9.802;2023-11-19T03:47:31;5.80;;;1.40;;
3779;SDS011;1905;52.482;9.802;2023-11-19T03:49:59;5.73;;;1.77;;
3779;SDS011;1905;52.482;9.802;2023-11-19T03:52:26;6.33;;;1.80;;
3779;SDS011;1905;52.482;9.802;2023-11-19T03:54:54;6.43;;;1.87;;
3779;SDS011;1905;52.482;9.802;2023-11-19T03:57:23;6.17;;;1.90;;
3779;SDS011;1905;52.482;9.802;2023-11-19T03:59:51;5.50;;;1.47;;
3779;SDS011;1905;52.482;9.802;2023-11-19T04:02:19;5.57;;;1.43;;
3779;SDS011;1905;52.482;9.802;2023-11-19T04:04:48;5.67;;;1.77;;
3779;SDS011;1905;52.482;9.802;2023-11-19T04:07:16;5.70;;;1.57;;
3779;SDS011;1905;52.482;9.802;2023-11-19T04:09:44;6.10;;;1.57;;
3779;SDS011;1905;52.482;9.802;2023-11-19T04:12:13;6.33;;;1.60;;
3779;SDS011;1905;52.482;9.802;2023-11-19T04:14:40;5.53;;;1.73;;
3779;SDS011;1905;52.482;9.802;2023-11-19T04:17:08;5.30;;;1.47;;
3779;SDS011;1905;52.482;9.802;2023-11-19T04:19:36;6.00;;;1.80;;
3779;SDS011;1905;52.482;9.802;2023-11-19T04:22:09;6.10;;;1.40;;
3779;SDS011;1905;52.482;9.802;2023-11-19T04:24:37;7.17;;;2.20;;
3779;SDS011;1905;52.482;9.802;2023-11-19T04:27:04;6.90;;;1.83;;
3779;SDS011;1905;52.482;9.802;2023-11-19T04:29:32;7.33;;;1.90;;
3779;SDS011;1905;52.482;9.802;2023-11-19T04:32:00;6.27;;;2.23;;
3779;SDS011;1905;52.482;9.802;2023-11-19T04:34:28;6.93;;;2.63;;
3779;SDS011;1905;52.482;9.802;2023-11-19T04:36:56;7.50;;;2.60;;
3779;SDS011;1905;52.482;9.802;2023-11-19T04:39:25;8.17;;;2.53;;
3779;SDS011;1905;52.482;9.802;2023-11-19T04:41:53;9.13;;;2.73;;
3779;SDS011;1905;52.482;9.802;2023-11-19T04:44:20;6.47;;;2.43;;
3779;SDS011;1905;52.482;9.802;2023-11-19T04:46:48;7.00;;;2.70;;
3779;SDS011;1905;52.482;9.802;2023-11-19T04:49:16;6.93;;;2.60;;
3779;SDS011;1905;52.482;9.802;2023-11-19T04:51:45;7.07;;;2.80;;
3779;SDS011;1905;52.482;9.802;2023-11-19T04:54:14;7.40;;;2.50;;
3779;SDS011;1905;52.482;9.802;2023-11-19T04:56:46;7.90;;;3.10;;
3779;SDS011;1905;52.482;9.802;2023-11-19T04:59:13;8.40;;;3.10;;
3779;SDS011;1905;52.482;9.802;2023-11-19T05:01:46;7.90;;;3.40;;
3779;SDS011;1905;52.482;9.802;2023-11-19T05:04:14;9.50;;;3.80;;
3779;SDS011;1905;52.482;9.802;2023-11-19T05:06:42;7.87;;;3.30;;
3779;SDS011;1905;52.482;9.802;2023-11-19T05:09:10;8.43;;;3.67;;
3779;SDS011;1905;52.482;9.802;2023-11-19T05:11:39;9.33;;;3.80;;
3779;SDS011;1905;52.482;9.802;2023-11-19T05:14:11;12.20;;;4.00;;
3779;SDS011;1905;52.482;9.802;2023-11-19T05:16:39;8.70;;;3.67;;
3779;SDS011;1905;52.482;9.802;2023-11-19T05:19:07;10.23;;;3.27;;
3779;SDS011;1905;52.482;9.802;2023-11-19T05:21:35;10.43;;;4.50;;
3779;SDS011;1905;52.482;9.802;2023-11-19T05:24:03;8.60;;;4.00;;
3779;SDS011;1905;52.482;9.802;2023-11-19T05:26:32;12.80;;;5.37;;
3779;SDS011;1905;52.482;9.802;2023-11-19T05:28:59;11.57;;;4.57;;
3779;SDS011;1905;52.482;9.802;2023-11-19T05:31:29;13.60;;;5.80;;
3779;SDS011;1905;52.482;9.802;2023-11-19T05:34:03;10.47;;;4.43;;
3779;SDS011;1905;52.482;9.802;2023-11-19T05:36:31;10.47;;;4.83;;
3779;SDS011;1905;52.482;9.802;2023-11-19T05:38:59;12.33;;;5.37;;
3779;SDS011;1905;52.482;9.802;2023-11-19T05:41:27;11.03;;;4.50;;
3779;SDS011;1905;52.482;9.802;2023-11-19T05:43:54;14.27;;;5.33;;
3779;SDS011;1905;52.482;9.802;2023-11-19T05:46:22;14.50;;;5.33;;
3779;SDS011;1905;52.482;9.802;2023-11-19T05:48:53;14.47;;;6.00;;
3779;SDS011;1905;52.482;9.802;2023-11-19T05:51:21;14.60;;;5.57;;
3779;SDS011;1905;52.482;9.802;2023-11-19T05:53:50;12.43;;;5.80;;
3779;SDS011;1905;52.482;9.802;2023-11-19T05:56:18;15.20;;;6.40;;
3779;SDS011;1905;52.482;9.802;2023-11-19T05:58:48;15.07;;;7.53;;
3779;SDS011;1905;52.482;9.802;2023-11-19T06:01:16;19.10;;;7.90;;
3779;SDS011;1905;52.482;9.802;2023-11-19T06:03:44;19.83;;;7.57;;
3779;SDS011;1905;52.482;9.802;2023-11-19T06:06:17;14.93;;;6.40;;
3779;SDS011;1905;52.482;9.802;2023-11-19T06:08:45;15.63;;;7.70;;
3779;SDS011;1905;52.482;9.802;2023-11-19T06:11:13;20.93;;;8.53;;
3779;SDS011;1905;52.482;9.802;2023-11-19T06:13:45;14.80;;;7.70;;
3779;SDS011;1905;52.482;9.802;2023-11-19T06:16:14;19.73;;;7.87;;
3779;SDS011;1905;52.482;9.802;2023-11-19T06:18:41;17.50;;;8.00;;
3779;SDS011;1905;52.482;9.802;2023-11-19T06:21:10;18.13;;;7.37;;
3779;SDS011;1905;52.482;9.802;2023-11-19T06:23:39;16.13;;;7.67;;
3779;SDS011;1905;52.482;9.802;2023-11-19T06:26:07;21.90;;;10.13;;
3779;SDS011;1905;52.482;9.802;2023-11-19T06:28:35;24.73;;;7.60;;
3779;SDS011;1905;52.482;9.802;2023-11-19T06:31:03;16.57;;;8.47;;
3779;SDS011;1905;52.482;9.802;2023-11-19T06:33:32;26.73;;;9.27;;
3779;SDS011;1905;52.482;9.802;2023-11-19T06:36:00;18.97;;;9.10;;
3779;SDS011;1905;52.482;9.802;2023-11-19T06:38:27;20.30;;;8.00;;
3779;SDS011;1905;52.482;9.802;2023-11-19T06:40:56;18.07;;;9.13;;
3779;SDS011;1905;52.482;9.802;2023-11-19T06:43:24;23.23;;;9.33;;
3779;SDS011;1905;52.482;9.802;2023-11-19T06:45:53;17.50;;;9.40;;
3779;SDS011;1905;52.482;9.802;2023-11-19T06:48:21;18.50;;;8.10;;
3779;SDS011;1905;52.482;9.802;2023-11-19T06:50:48;22.17;;;8.87;;
3779;SDS011;1905;52.482;9.802;2023-11-19T06:53:16;23.33;;;8.73;;
3779;SDS011;1905;52.482;9.802;2023-11-19T06:55:45;17.50;;;7.80;;
3779;SDS011;1905;52.482;9.802;2023-11-19T06:58:14;24.13;;;7.93;;
3779;SDS011;1905;52.482;9.802;2023-11-19T07:00:44;21.03;;;7.40;;
3779;SDS011;1905;52.482;9.802;2023-11-19T07:03:13;22.20;;;7.70;;
3779;SDS011;1905;52.482;9.802;2023-11-19T07:05:42;22.03;;;7.30;;
3779;SDS011;1905;52.482;9.802;2023-11-19T07:08:10;19.60;;;7.27;;
3779;SDS011;1905;52.482;9.802;2023-11-19T07:10:37;15.30;;;7.80;;
3779;SDS011;1905;52.482;9.802;2023-11-19T07:13:05;16.87;;;6.13;;
3779;SDS011;1905;52.482;9.802;2023-11-19T07:15:35;19.70;;;6.40;;
3779;SDS011;1905;52.482;9.802;2023-11-19T07:18:02;23.93;;;7.27;;
3779;SDS011;1905;52.482;9.802;2023-11-19T07:20:30;19.70;;;6.30;;
3779;SDS011;1905;52.482;9.802;2023-11-19T07:22:59;16.20;;;6.97;;
3779;SDS011;1905;52.482;9.802;2023-11-19T07:25:27;15.20;;;5.70;;
3779;SDS011;1905;52.482;9.802;2023-11-19T07:27:54;12.23;;;5.97;;
3779;SDS011;1905;52.482;9.802;2023-11-19T07:30:22;19.97;;;6.10;;
3779;SDS011;1905;52.482;9.802;2023-11-19T07:32:52;21.03;;;6.00;;
3779;SDS011;1905;52.482;9.802;2023-11-19T07:35:20;18.63;;;6.40;;
3779;SDS011;1905;52.482;9.802;2023-11-19T07:37:48;16.23;;;6.00;;
3779;SDS011;1905;52.482;9.802;2023-11-19T07:40:16;15.30;;;6.37;;
3779;SDS011;1905;52.482;9.802;2023-11-19T07:42:45;17.83;;;5.97;;
3779;SDS011;1905;52.482;9.802;2023-11-19T07:45:13;18.13;;;5.90;;
3779;SDS011;1905;52.482;9.802;2023-11-19T07:47:41;23.50;;;6.37;;
3779;SDS011;1905;52.482;9.802;2023-11-19T07:50:13;14.80;;;4.77;;
3779;SDS011;1905;52.482;9.802;2023-11-19T07:52:43;17.10;;;4.63;;
3779;SDS011;1905;52.482;9.802;2023-11-19T07:55:10;14.13;;;4.40;;
3779;SDS011;1905;52.482;9.802;2023-11-19T07:57:38;20.40;;;6.57;;
3779;SDS011;1905;52.482;9.802;2023-11-19T08:00:06;19.90;;;5.03;;
3779;SDS011;1905;52.482;9.802;2023-11-19T08:02:38;17.70;;;4.60;;
3779;SDS011;1905;52.482;9.802;2023-11-19T08:05:07;23.73;;;5.60;;
3779;SDS011;1905;52.482;9.802;2023-11-19T08:07:36;13.07;;;4.30;;
3779;SDS011;1905;52.482;9.802;2023-11-19T08:10:04;16.07;;;5.50;;
3779;SDS011;1905;52.482;9.802;2023-11-19T08:12:36;18.57;;;4.80;;
3779;SDS011;1905;52.482;9.802;2023-11-19T08:15:04;21.10;;;5.20;;
3779;SDS011;1905;52.482;9.802;2023-11-19T08:17:33;19.10;;;4.50;;
3779;SDS011;1905;52.482;9.802;2023-11-19T08:20:01;22.70;;;4.03;;
3779;SDS011;1905;52.482;9.802;2023-11-19T08:22:29;13.00;;;4.43;;
3779;SDS011;1905;52.482;9.802;2023-11-19T08:24:58;20.63;;;4.10;;
3779;SDS011;1905;52.482;9.802;2023-11-19T08:27:26;24.50;;;4.47;;
3779;SDS011;1905;52.482;9.802;2023-11-19T08:29:54;10.60;;;3.20;;
3779;SDS011;1905;52.482;9.802;2023-11-19T08:32:23;15.43;;;4.27;;
3779;SDS011;1905;52.482;9.802;2023-11-19T08:34:50;19.73;;;4.03;;
3779;SDS011;1905;52.482;9.802;2023-11-19T08:37:18;14.63;;;3.63;;
3779;SDS011;1905;52.482;9.802;2023-11-19T08:39:47;21.50;;;5.13;;
3779;SDS011;1905;52.482;9.802;2023-11-19T08:42:16;23.13;;;4.83;;
3779;SDS011;1905;52.482;9.802;2023-11-19T08:44:48;16.63;;;4.20;;
3779;SDS011;1905;52.482;9.802;2023-11-19T08:47:17;19.77;;;5.90;;
3779;SDS011;1905;52.482;9.802;2023-11-19T08:49:45;16.77;;;4.07;;
3779;SDS011;1905;52.482;9.802;2023-11-19T08:52:29;19.30;;;4.73;;
3779;SDS011;1905;52.482;9.802;2023-11-19T08:55:00;21.33;;;5.73;;
3779;SDS011;1905;52.482;9.802;2023-11-19T08:57:29;22.40;;;4.67;;
3779;SDS011;1905;52.482;9.802;2023-11-19T08:59:57;16.90;;;4.63;;
3779;SDS011;1905;52.482;9.802;2023-11-19T09:02:25;18.17;;;4.23;;
3779;SDS011;1905;52.482;9.802;2023-11-19T09:04:52;12.47;;;4.30;;
3779;SDS011;1905;52.482;9.802;2023-11-19T09:07:20;18.60;;;5.17;;
3779;SDS011;1905;52.482;9.802;2023-11-19T09:09:48;21.20;;;4.23;;
3779;SDS011;1905;52.482;9.802;2023-11-19T09:12:16;26.80;;;4.83;;
3779;SDS011;1905;52.482;9.802;2023-11-19T09:14:45;13.77;;;5.30;;
3779;SDS011;1905;52.482;9.802;2023-11-19T09:17:13;14.93;;;3.73;;
3779;SDS011;1905;52.482;9.802;2023-11-19T09:19:40;19.57;;;4.43;;
3779;SDS011;1905;52.482;9.802;2023-11-19T09:22:08;14.63;;;4.23;;
3779;SDS011;1905;52.482;9.802;2023-11-19T09:24:35;20.43;;;5.57;;
3779;SDS011;1905;52.482;9.802;2023-11-19T09:27:03;20.90;;;6.00;;
3779;SDS011;1905;52.482;9.802;2023-11-19T09:29:31;27.37;;;6.00;;
3779;SDS011;1905;52.482;9.802;2023-11-19T09:32:01;19.20;;;6.17;;
3779;SDS011;1905;52.482;9.802;2023-11-19T09:34:31;20.47;;;5.60;;
3779;SDS011;1905;52.482;9.802;2023-11-19T09:36:59;20.53;;;5.03;;
3779;SDS011;1905;52.482;9.802;2023-11-19T09:39:27;20.63;;;6.10;;
3779;SDS011;1905;52.482;9.802;2023-11-19T09:41:55;21.77;;;5.47;;
3779;SDS011;1905;52.482;9.802;2023-11-19T09:44:24;22.53;;;6.20;;
3779;SDS011;1905;52.482;9.802;2023-11-19T09:46:54;18.80;;;4.93;;
3779;SDS011;1905;52.482;9.802;2023-11-19T09:49:23;17.20;;;4.27;;
3779;SDS011;1905;52.482;9.802;2023-11-19T09:51:56;22.33;;;6.37;;
3779;SDS011;1905;52.482;9.802;2023-11-19T09:54:25;16.70;;;4.50;;
3779;SDS011;1905;52.482;9.802;2023-11-19T09:56:52;21.50;;;4.73;;
3779;SDS011;1905;52.482;9.802;2023-11-19T09:59:21;16.07;;;3.30;;
3779;SDS011;1905;52.482;9.802;2023-11-19T10:01:48;20.93;;;6.27;;
3779;SDS011;1905;52.482;9.802;2023-11-19T10:04:16;21.60;;;5.10;;
3779;SDS011;1905;52.482;9.802;2023-11-19T10:06:46;28.43;;;6.70;;
3779;SDS011;1905;52.482;9.802;2023-11-19T10:09:15;15.97;;;6.00;;
3779;SDS011;1905;52.482;9.802;2023-11-19T10:11:42;16.00;;;4.70;;
3779;SDS011;1905;52.482;9.802;2023-11-19T10:14:10;17.20;;;4.63;;
3779;SDS011;1905;52.482;9.802;2023-11-19T10:16:39;19.00;;;4.97;;
3779;SDS011;1905;52.482;9.802;2023-11-19T10:19:09;24.77;;;4.80;;
3779;SDS011;1905;52.482;9.802;2023-11-19T10:21:47;16.77;;;4.70;;
3779;SDS011;1905;52.482;9.802;2023-11-19T10:24:15;24.23;;;5.20;;
3779;SDS011;1905;52.482;9.802;2023-11-19T10:26:45;28.80;;;5.30;;
3779;SDS011;1905;52.482;9.802;2023-11-19T10:29:13;18.97;;;4.27;;
3779;SDS011;1905;52.482;9.802;2023-11-19T10:31:41;29.10;;;4.87;;
3779;SDS011;1905;52.482;9.802;2023-11-19T10:34:26;21.50;;;4.43;;
3779;SDS011;1905;52.482;9.802;2023-11-19T10:36:57;21.00;;;4.83;;
3779;SDS011;1905;52.482;9.802;2023-11-19T10:39:26;22.40;;;6.13;;
3779;SDS011;1905;52.482;9.802;2023-11-19T10:42:19;23.90;;;4.17;;
3779;SDS011;1905;52.482;9.802;2023-11-19T10:44:47;19.83;;;4.13;;
3779;SDS011;1905;52.482;9.802;2023-11-19T10:47:15;20.13;;;4.63;;
3779;SDS011;1905;52.482;9.802;2023-11-19T10:49:44;27.40;;;4.53;;
3779;SDS011;1905;52.482;9.802;2023-11-19T10:52:16;26.30;;;4.87;;
3779;SDS011;1905;52.482;9.802;2023-11-19T10:54:47;14.40;;;4.40;;
3779;SDS011;1905;52.482;9.802;2023-11-19T10:57:19;18.20;;;4.83;;
3779;SDS011;1905;52.482;9.802;2023-11-19T10:59:49;20.43;;;5.73;;
3779;SDS011;1905;52.482;9.802;2023-11-19T11:02:21;16.13;;;4.00;;
3779;SDS011;1905;52.482;9.802;2023-11-19T11:04:51;22.33;;;4.60;;
3779;SDS011;1905;52.482;9.802;2023-11-19T11:07:21;17.90;;;5.00;;
3779;SDS011;1905;52.482;9.802;2023-11-19T11:10:02;17.67;;;4.53;;
3779;SDS011;1905;52.482;9.802;2023-11-19T11:12:32;19.27;;;5.63;;
3779;SDS011;1905;52.482;9.802;2023-11-19T11:15:04;17.73;;;4.80;;
3779;SDS011;1905;52.482;9.802;2023-11-19T11:17:33;17.80;;;5.03;;
3779;SDS011;1905;52.482;9.802;2023-11-19T11:20:01;23.70;;;5.17;;
3779;SDS011;1905;52.482;9.802;2023-11-19T11:22:32;26.73;;;4.60;;
3779;SDS011;1905;52.482;9.802;2023-11-19T11:25:16;22.93;;;5.53;;
3779;SDS011;1905;52.482;9.802;2023-11-19T11:27:58;14.60;;;4.83;;
3779;SDS011;1905;52.482;9.802;2023-11-19T11:30:46;24.70;;;5.03;;
3779;SDS011;1905;52.482;9.802;2023-11-19T11:33:26;19.40;;;4.50;;
3779;SDS011;1905;52.482;9.802;2023-11-19T11:36:07;24.60;;;4.93;;
3779;SDS011;1905;52.482;9.802;2023-11-19T11:38:47;18.53;;;4.70;;
3779;SDS011;1905;52.482;9.802;2023-11-19T11:41:17;16.03;;;6.23;;
3779;SDS011;1905;52.482;9.802;2023-11-19T11:43:52;17.70;;;5.90;;
3779;SDS011;1905;52.482;9.802;2023-11-19T11:49:25;21.40;;;4.77;;
3779;SDS011;1905;52.482;9.802;2023-11-19T11:52:00;17.63;;;6.30;;
3779;SDS011;1905;52.482;9.802;2023-11-19T11:54:32;20.90;;;4.70;;
3779;SDS011;1905;52.482;9.802;2023-11-19T11:57:08;19.10;;;6.77;;
3779;SDS011;1905;52.482;9.802;2023-11-19T11:59:45;21.60;;;4.83;;
3779;SDS011;1905;52.482;9.802;2023-11-19T12:02:14;18.60;;;4.70;;
3779;SDS011;1905;52.482;9.802;2023-11-19T12:04:46;16.10;;;3.90;;
3779;SDS011;1905;52.482;9.802;2023-11-19T12:07:16;29.10;;;5.70;;
3779;SDS011;1905;52.482;9.802;2023-11-19T12:09:51;21.80;;;5.60;;
3779;SDS011;1905;52.482;9.802;2023-11-19T12:12:22;14.73;;;4.87;;
3779;SDS011;1905;52.482;9.802;2023-11-19T12:15:01;16.20;;;4.53;;
3779;SDS011;1905;52.482;9.802;2023-11-19T12:17:36;14.77;;;5.70;;
3779;SDS011;1905;52.482;9.802;2023-11-19T12:20:06;21.33;;;5.20;;
3779;SDS011;1905;52.482;9.802;2023-11-19T12:22:35;16.83;;;4.70;;
3779;SDS011;1905;52.482;9.802;2023-11-19T12:25:07;21.03;;;5.10;;
3779;SDS011;1905;52.482;9.802;2023-11-19T12:27:36;14.60;;;4.53;;
3779;SDS011;1905;52.482;9.802;2023-11-19T12:30:04;18.40;;;4.27;;
3779;SDS011;1905;52.482;9.802;2023-11-19T12:32:39;17.73;;;5.10;;
3779;SDS011;1905;52.482;9.802;2023-11-19T12:35:08;18.87;;;4.47;;
3779;SDS011;1905;52.482;9.802;2023-11-19T12:37:39;21.67;;;4.33;;
3779;SDS011;1905;52.482;9.802;2023-11-19T12:40:15;19.33;;;4.90;;
3779;SDS011;1905;52.482;9.802;2023-11-19T12:42:45;17.23;;;4.23;;
3779;SDS011;1905;52.482;9.802;2023-11-19T12:45:13;22.63;;;6.63;;
3779;SDS011;1905;52.482;9.802;2023-11-19T12:47:43;18.63;;;3.90;;
3779;SDS011;1905;52.482;9.802;2023-11-19T12:50:13;21.10;;;5.00;;
3779;SDS011;1905;52.482;9.802;2023-11-19T12:52:42;18.47;;;4.07;;
3779;SDS011;1905;52.482;9.802;2023-11-19T12:57:56;21.63;;;5.00;;
3779;SDS011;1905;52.482;9.802;2023-11-19T13:00:25;21.43;;;7.10;;
3779;SDS011;1905;52.482;9.802;2023-11-19T13:02:55;14.90;;;4.20;;
3779;SDS011;1905;52.482;9.802;2023-11-19T13:05:27;21.90;;;5.37;;
3779;SDS011;1905;52.482;9.802;2023-11-19T13:07:58;13.70;;;5.00;;
3779;SDS011;1905;52.482;9.802;2023-11-19T13:10:28;16.70;;;4.40;;
3779;SDS011;1905;52.482;9.802;2023-11-19T13:13:00;16.97;;;5.43;;
3779;SDS011;1905;52.482;9.802;2023-11-19T13:15:33;21.37;;;6.00;;
3779;SDS011;1905;52.482;9.802;2023-11-19T13:18:01;15.60;;;6.20;;
3779;SDS011;1905;52.482;9.802;2023-11-19T13:20:29;21.47;;;4.83;;
3779;SDS011;1905;52.482;9.802;2023-11-19T13:22:58;15.33;;;4.30;;
3779;SDS011;1905;52.482;9.802;2023-11-19T13:25:28;21.60;;;4.33;;
3779;SDS011;1905;52.482;9.802;2023-11-19T13:27:57;18.37;;;4.63;;
3779;SDS011;1905;52.482;9.802;2023-11-19T13:30:25;19.60;;;4.10;;
3779;SDS011;1905;52.482;9.802;2023-11-19T13:32:53;18.33;;;3.70;;
3779;SDS011;1905;52.482;9.802;2023-11-19T13:35:23;16.50;;;4.90;;
3779;SDS011;1905;52.482;9.802;2023-11-19T13:37:51;18.17;;;4.53;;
3779;SDS011;1905;52.482;9.802;2023-11-19T13:40:19;17.10;;;6.90;;
3779;SDS011;1905;52.482;9.802;2023-11-19T13:42:50;10.93;;;3.73;;
3779;SDS011;1905;52.482;9.802;2023-11-19T13:45:17;18.43;;;6.40;;
3779;SDS011;1905;52.482;9.802;2023-11-19T13:47:47;13.07;;;3.80;;
3779;SDS011;1905;52.482;9.802;2023-11-19T13:50:15;15.00;;;3.47;;
3779;SDS011;1905;52.482;9.802;2023-11-19T13:52:44;16.57;;;5.10;;
3779;SDS011;1905;52.482;9.802;2023-11-19T13:55:13;14.53;;;4.33;;
3779;SDS011;1905;52.482;9.802;2023-11-19T13:57:42;15.07;;;4.20;;
3779;SDS011;1905;52.482;9.802;2023-11-19T14:00:12;20.00;;;5.20;;
3779;SDS011;1905;52.482;9.802;2023-11-19T14:02:43;18.23;;;3.93;;
3779;SDS011;1905;52.482;9.802;2023-11-19T14:05:11;17.13;;;4.60;;
3779;SDS011;1905;52.482;9.802;2023-11-19T14:07:40;13.30;;;4.03;;
3779;SDS011;1905;52.482;9.802;2023-11-19T14:10:08;15.87;;;4.83;;
3779;SDS011;1905;52.482;9.802;2023-11-19T14:12:37;23.97;;;6.10;;
3779;SDS011;1905;52.482;9.802;2023-11-19T14:15:05;20.87;;;4.30;;
3779;SDS011;1905;52.482;9.802;2023-11-19T14:17:37;19.67;;;4.37;;
3779;SDS011;1905;52.482;9.802;2023-11-19T14:20:05;13.00;;;4.00;;
3779;SDS011;1905;52.482;9.802;2023-11-19T14:22:39;22.17;;;4.70;;
3779;SDS011;1905;52.482;9.802;2023-11-19T14:25:08;14.60;;;3.77;;
3779;SDS011;1905;52.482;9.802;2023-11-19T14:27:37;15.57;;;3.90;;
3779;SDS011;1905;52.482;9.802;2023-11-19T14:30:05;13.80;;;4.10;;
3779;SDS011;1905;52.482;9.802;2023-11-19T14:32:36;19.87;;;4.40;;
3779;SDS011;1905;52.482;9.802;2023-11-19T14:35:05;15.77;;;4.40;;
3779;SDS011;1905;52.482;9.802;2023-11-19T14:37:33;29.30;;;5.77;;
3779;SDS011;1905;52.482;9.802;2023-11-19T14:40:01;25.67;;;5.90;;
3779;SDS011;1905;52.482;9.802;2023-11-19T14:42:31;21.10;;;4.07;;
3779;SDS011;1905;52.482;9.802;2023-11-19T14:44:59;18.23;;;3.40;;
3779;SDS011;1905;52.482;9.802;2023-11-19T14:47:27;16.03;;;3.40;;
3779;SDS011;1905;52.482;9.802;2023-11-19T14:49:57;12.90;;;4.10;;
3779;SDS011;1905;52.482;9.802;2023-11-19T14:52:24;17.87;;;4.63;;
3779;SDS011;1905;52.482;9.802;2023-11-19T14:54:52;18.03;;;4.57;;
3779;SDS011;1905;52.482;9.802;2023-11-19T14:57:22;18.90;;;5.17;;
3779;SDS011;1905;52.482;9.802;2023-11-19T14:59:50;18.13;;;4.83;;
3779;SDS011;1905;52.482;9.802;2023-11-19T15:02:18;19.17;;;5.03;;
3779;SDS011;1905;52.482;9.802;2023-11-19T15:04:46;14.33;;;3.90;;
3779;SDS011;1905;52.482;9.802;2023-11-19T15:07:15;15.13;;;4.40;;
3779;SDS011;1905;52.482;9.802;2023-11-19T15:09:42;20.13;;;4.27;;
3779;SDS011;1905;52.482;9.802;2023-11-19T15:12:10;20.33;;;4.00;;
3779;SDS011;1905;52.482;9.802;2023-11-19T15:14:38;21.40;;;3.97;;
3779;SDS011;1905;52.482;9.802;2023-11-19T15:17:06;12.97;;;3.13;;
3779;SDS011;1905;52.482;9.802;2023-11-19T15:19:34;18.03;;;3.80;;
3779;SDS011;1905;52.482;9.802;2023-11-19T15:22:02;18.73;;;3.73;;
3779;SDS011;1905;52.482;9.802;2023-11-19T15:24:33;14.80;;;3.70;;